createdAt,value
2022-09-20T00:01:32.202Z,12.90
2022-09-20T00:04:01.007Z,12.70
2022-09-20T00:06:29.943Z,12.90
2022-09-20T00:08:57.371Z,12.80
2022-09-20T00:11:26.795Z,12.60
2022-09-20T00:13:54.654Z,12.50
2022-09-20T00:16:26.941Z,12.50
2022-09-20T00:18:55.391Z,12.50
2022-09-20T00:21:24.979Z,12.50
2022-09-20T00:23:52.435Z,12.50
2022-09-20T00:26:19.399Z,12.50
2022-09-20T00:28:47.060Z,12.40
2022-09-20T00:31:14.715Z,12.50
2022-09-20T00:33:59.931Z,12.70
2022-09-20T00:36:27.432Z,12.50
2022-09-20T00:39:01.913Z,12.50
2022-09-20T00:41:30.370Z,12.40
2022-09-20T00:43:57.377Z,12.40
2022-09-20T00:46:38.622Z,12.40
2022-09-20T00:49:15.070Z,12.30
2022-09-20T00:51:45.145Z,12.40
2022-09-20T00:54:15.881Z,12.40
2022-09-20T00:56:46.103Z,12.50
2022-09-20T00:59:17.314Z,12.50
2022-09-20T01:01:46.515Z,12.30
2022-09-20T01:04:14.451Z,12.30
2022-09-20T01:06:43.181Z,12.50
2022-09-20T01:09:09.788Z,12.30
2022-09-20T01:11:36.463Z,12.20
2022-09-20T01:14:03.404Z,12.10
2022-09-20T01:16:31.150Z,12.20
2022-09-20T01:18:59.089Z,12.30
2022-09-20T01:21:26.448Z,12.20
2022-09-20T01:24:02.970Z,12.10
2022-09-20T01:26:45.593Z,12.20
2022-09-20T01:29:33.710Z,12.40
2022-09-20T01:32:02.747Z,12.20
2022-09-20T01:34:37.113Z,12.10
2022-09-20T01:37:05.424Z,12.20
2022-09-20T01:40:10.873Z,12.20
2022-09-20T01:42:39.362Z,12.00
2022-09-20T01:45:27.162Z,11.50
2022-09-20T01:47:56.663Z,11.80
2022-09-20T01:50:35.436Z,11.90
2022-09-20T01:53:23.855Z,11.80
2022-09-20T01:56:27.549Z,11.40
2022-09-20T01:59:31.986Z,10.80
2022-09-20T02:02:16.588Z,10.80
2022-09-20T02:05:04.553Z,10.80
2022-09-20T02:08:03.410Z,10.60
2022-09-20T02:11:14.138Z,10.90
2022-09-20T02:13:40.546Z,10.90
2022-09-20T02:16:22.547Z,10.80
2022-09-20T02:19:21.742Z,10.80
2022-09-20T02:21:48.158Z,10.80
2022-09-20T02:24:21.219Z,10.90
2022-09-20T02:27:02.218Z,11.10
2022-09-20T02:30:06.472Z,11.10
2022-09-20T02:33:08.569Z,11.40
2022-09-20T02:35:53.779Z,11.40
2022-09-20T02:38:31.063Z,11.60
2022-09-20T02:41:19.510Z,11.70
2022-09-20T02:44:01.732Z,11.90
2022-09-20T02:46:52.560Z,11.80
2022-09-20T02:49:30.461Z,11.70
2022-09-20T02:52:00.655Z,11.70
2022-09-20T02:54:37.852Z,11.60
2022-09-20T02:57:35.819Z,11.50
2022-09-20T03:00:14.813Z,11.40
2022-09-20T03:03:15.311Z,11.50
2022-09-20T03:05:53.158Z,11.70
2022-09-20T03:08:33.742Z,11.40
2022-09-20T03:11:21.442Z,11.50
2022-09-20T03:14:00.853Z,11.60
2022-09-20T03:16:53.639Z,11.70
2022-09-20T03:19:35.747Z,11.60
2022-09-20T03:22:15.785Z,11.80
2022-09-20T03:25:01.214Z,11.80
2022-09-20T03:27:43.717Z,11.80
2022-09-20T03:30:19.367Z,11.70
2022-09-20T03:33:11.740Z,11.60
2022-09-20T03:36:23.107Z,11.40
2022-09-20T03:39:01.789Z,11.60
2022-09-20T03:41:53.123Z,11.50
2022-09-20T03:44:31.884Z,11.60
2022-09-20T03:47:27.534Z,11.30
2022-09-20T03:50:24.942Z,11.30
2022-09-20T03:53:05.201Z,11.10
2022-09-20T03:55:31.733Z,11.10
2022-09-20T03:58:08.172Z,11.20
2022-09-20T04:01:20.203Z,11.40
2022-09-20T04:04:05.233Z,11.60
2022-09-20T04:06:44.330Z,11.60
2022-09-20T04:09:38.072Z,11.60
2022-09-20T04:12:17.178Z,11.50
2022-09-20T04:14:49.263Z,11.60
2022-09-20T04:17:21.965Z,11.40
2022-09-20T04:20:32.052Z,11.20
2022-09-20T04:23:03.694Z,11.30
2022-09-20T04:25:37.069Z,11.30
2022-09-20T04:28:11.482Z,11.40
2022-09-20T04:30:43.845Z,11.30
2022-09-20T04:33:29.983Z,11.60
2022-09-20T04:36:32.687Z,11.40
2022-09-20T04:39:12.105Z,11.50
2022-09-20T04:42:03.983Z,11.50
2022-09-20T04:44:42.501Z,11.60
2022-09-20T04:47:42.805Z,11.70
2022-09-20T04:50:18.021Z,11.80
2022-09-20T04:52:55.133Z,11.60
2022-09-20T04:55:46.239Z,11.70
2022-09-20T04:58:37.634Z,11.60
2022-09-20T05:01:17.018Z,11.90
2022-09-20T05:03:58.899Z,11.90
2022-09-20T05:06:45.217Z,11.90
2022-09-20T05:09:20.605Z,11.80
2022-09-20T05:12:15.036Z,11.70
2022-09-20T05:15:00.205Z,11.60
2022-09-20T05:17:33.484Z,11.70
2022-09-20T05:20:10.003Z,11.70
2022-09-20T05:23:10.111Z,11.90
2022-09-20T05:25:56.339Z,11.90
2022-09-20T05:28:25.526Z,11.90
2022-09-20T05:31:02.510Z,12.00
2022-09-20T05:33:35.475Z,12.00
2022-09-20T05:36:35.779Z,12.00
2022-09-20T05:39:09.791Z,12.00
2022-09-20T05:41:47.970Z,12.20
2022-09-20T05:44:31.022Z,12.20
2022-09-20T05:47:16.295Z,12.10
2022-09-20T05:50:15.124Z,12.10
2022-09-20T05:53:18.597Z,12.30
2022-09-20T05:56:11.224Z,12.50
2022-09-20T05:58:55.542Z,12.40
2022-09-20T06:01:42.939Z,12.20
2022-09-20T06:04:17.560Z,12.50
2022-09-20T06:07:15.100Z,12.60
2022-09-20T06:10:04.801Z,12.70
2022-09-20T06:12:35.617Z,13.00
2022-09-20T06:15:59.311Z,12.90
2022-09-20T06:18:31.371Z,12.80
2022-09-20T06:21:09.829Z,12.70
2022-09-20T06:23:36.744Z,12.50
2022-09-20T06:26:07.825Z,12.70
2022-09-20T06:28:41.880Z,12.70
2022-09-20T06:31:10.109Z,12.90
2022-09-20T06:34:07.475Z,13.00
2022-09-20T06:36:55.491Z,13.10
2022-09-20T06:39:56.550Z,13.20
2022-09-20T06:42:26.932Z,13.10
2022-09-20T06:44:53.733Z,13.40
2022-09-20T06:47:20.232Z,13.20
2022-09-20T06:49:47.675Z,13.20
2022-09-20T06:52:15.780Z,13.50
2022-09-20T06:54:45.750Z,13.50
2022-09-20T06:57:15.079Z,14.00
2022-09-20T06:59:41.541Z,14.10
2022-09-20T07:02:08.328Z,13.80
2022-09-20T07:04:35.203Z,14.10
2022-09-20T07:07:09.451Z,14.20
2022-09-20T07:09:36.489Z,14.30
2022-09-20T07:12:03.183Z,14.50
2022-09-20T07:14:29.748Z,14.80
2022-09-20T07:16:56.241Z,15.00
2022-09-20T07:19:23.337Z,15.00
2022-09-20T07:21:49.891Z,15.20
2022-09-20T07:24:16.404Z,15.30
2022-09-20T07:26:58.322Z,15.40
2022-09-20T07:29:25.657Z,15.70
2022-09-20T07:31:52.256Z,15.80
2022-09-20T07:34:20.242Z,15.30
2022-09-20T07:36:52.902Z,15.40
2022-09-20T07:39:19.366Z,15.40
2022-09-20T07:41:48.500Z,15.40
2022-09-20T07:44:21.569Z,15.50
2022-09-20T07:46:49.285Z,15.70
2022-09-20T07:49:15.837Z,15.90
2022-09-20T07:51:42.574Z,15.80
2022-09-20T07:54:09.183Z,15.60
2022-09-20T07:56:36.169Z,15.50
2022-09-20T07:59:02.649Z,15.30
2022-09-20T08:01:29.425Z,15.80
2022-09-20T08:04:14.526Z,15.80
2022-09-20T08:06:43.427Z,16.30
2022-09-20T08:09:11.456Z,15.80
2022-09-20T08:11:39.482Z,15.60
2022-09-20T08:14:08.820Z,15.80
2022-09-20T08:16:44.796Z,15.80
2022-09-20T08:19:22.766Z,15.90
2022-09-20T08:21:50.740Z,15.80
2022-09-20T08:24:17.236Z,16.10
2022-09-20T08:26:44.112Z,16.60
2022-09-20T08:29:11.580Z,16.70
2022-09-20T08:31:42.268Z,16.70
2022-09-20T08:34:10.787Z,17.50
2022-09-20T08:36:41.223Z,17.90
2022-09-20T08:42:35.723Z,17.70
2022-09-20T08:45:07.337Z,17.40
2022-09-20T08:47:37.047Z,17.30
2022-09-20T08:50:09.969Z,17.90
2022-09-20T08:52:40.012Z,18.00
2022-09-20T08:55:18.820Z,18.50
2022-09-20T08:57:56.427Z,18.20
2022-09-20T09:00:25.998Z,18.60
2022-09-20T09:02:56.095Z,18.30
2022-09-20T09:05:33.143Z,18.10
2022-09-20T09:08:04.712Z,18.90
2022-09-20T09:10:42.545Z,18.10
2022-09-20T09:13:18.016Z,17.60
2022-09-20T09:15:47.280Z,18.20
2022-09-20T09:18:14.512Z,18.90
2022-09-20T09:20:43.304Z,18.70
2022-09-20T09:23:25.176Z,18.30
2022-09-20T09:25:55.497Z,18.50
2022-09-20T09:28:26.698Z,19.00
2022-09-20T09:30:54.116Z,18.80
2022-09-20T09:33:27.931Z,18.90
2022-09-20T09:35:56.000Z,19.30
2022-09-20T09:38:24.722Z,19.60
2022-09-20T09:40:54.588Z,19.30
2022-09-20T09:43:30.098Z,19.30
2022-09-20T09:46:17.449Z,19.00
2022-09-20T09:48:49.701Z,19.30
2022-09-20T09:51:19.239Z,19.50
2022-09-20T09:53:47.750Z,20.20
2022-09-20T09:56:17.973Z,19.90
2022-09-20T09:58:57.515Z,19.50
2022-09-20T10:01:33.416Z,19.50
2022-09-20T10:04:09.163Z,20.00
2022-09-20T10:06:50.577Z,20.40
2022-09-20T10:09:29.612Z,20.50
2022-09-20T10:12:24.625Z,20.30
2022-09-20T10:15:07.048Z,19.80
2022-09-20T10:17:45.286Z,19.90
2022-09-20T10:20:33.616Z,20.10
2022-09-20T10:23:45.204Z,20.80
2022-09-20T10:26:31.917Z,21.50
2022-09-20T10:29:15.630Z,21.30
2022-09-20T10:32:00.943Z,21.50
2022-09-20T10:35:06.062Z,21.80
2022-09-20T10:38:03.417Z,21.10
2022-09-20T10:41:08.513Z,21.40
2022-09-20T10:44:08.787Z,21.50
2022-09-20T10:46:53.694Z,21.10
2022-09-20T10:49:36.622Z,21.10
2022-09-20T10:52:14.717Z,20.30
2022-09-20T10:55:07.756Z,20.20
2022-09-20T10:57:54.808Z,19.60
2022-09-20T11:00:22.561Z,18.60
2022-09-20T11:03:04.540Z,17.40
2022-09-20T11:05:49.064Z,17.20
2022-09-20T11:08:18.950Z,16.60
2022-09-20T11:10:48.235Z,16.30
2022-09-20T11:13:42.521Z,17.00
2022-09-20T11:16:19.565Z,17.40
2022-09-20T11:19:18.766Z,17.00
2022-09-20T11:21:55.015Z,16.80
2022-09-20T11:24:35.153Z,16.90
2022-09-20T11:27:21.747Z,17.20
2022-09-20T11:30:15.979Z,17.00
2022-09-20T11:33:03.568Z,16.70
2022-09-20T11:35:43.348Z,16.30
2022-09-20T11:38:21.973Z,15.60
2022-09-20T11:41:25.815Z,15.30
2022-09-20T11:43:54.210Z,15.40
2022-09-20T11:46:36.311Z,15.70
2022-09-20T11:49:03.369Z,15.60
2022-09-20T11:52:00.327Z,15.50
2022-09-20T11:54:48.210Z,15.60
2022-09-20T11:57:24.531Z,15.70
2022-09-20T12:00:01.623Z,16.00
2022-09-20T12:02:41.653Z,16.50
2022-09-20T12:05:37.923Z,15.90
2022-09-20T12:08:24.922Z,15.50
2022-09-20T12:11:22.463Z,15.90
2022-09-20T12:14:06.724Z,16.00
2022-09-20T12:16:43.966Z,16.20
2022-09-20T12:19:22.970Z,17.70
2022-09-20T12:21:58.946Z,19.00
2022-09-20T12:24:29.247Z,20.30
2022-09-20T12:26:57.502Z,21.00
2022-09-20T12:29:24.126Z,21.80
2022-09-20T12:31:54.868Z,22.40
2022-09-20T12:34:50.646Z,22.50
2022-09-20T12:37:19.759Z,22.60
2022-09-20T12:39:55.530Z,22.80
2022-09-20T12:42:35.108Z,23.30
2022-09-20T12:45:07.247Z,22.70
2022-09-20T12:47:35.577Z,22.20
2022-09-20T12:50:22.673Z,22.00
2022-09-20T12:52:57.521Z,21.80
2022-09-20T12:55:26.981Z,21.90
2022-09-20T12:58:04.941Z,22.10
2022-09-20T13:01:04.689Z,22.50
2022-09-20T13:03:36.846Z,22.50
2022-09-20T13:06:06.490Z,23.40
2022-09-20T13:08:41.397Z,24.30
2022-09-20T13:11:12.085Z,24.10
2022-09-20T13:13:49.247Z,23.50
2022-09-20T13:16:24.338Z,22.60
2022-09-20T13:19:18.703Z,22.30
2022-09-20T13:21:54.354Z,20.90
2022-09-20T13:24:21.137Z,20.90
2022-09-20T13:26:49.152Z,20.80
2022-09-20T13:29:33.541Z,20.70
2022-09-20T13:32:35.972Z,20.00
2022-09-20T13:35:21.507Z,20.20
2022-09-20T13:37:52.662Z,20.30
2022-09-20T13:40:25.291Z,20.40
2022-09-20T13:43:22.265Z,20.60
2022-09-20T13:45:53.891Z,20.90
2022-09-20T13:48:25.628Z,20.80
2022-09-20T13:50:53.731Z,20.50
2022-09-20T13:53:41.183Z,21.00
2022-09-20T13:56:29.823Z,21.50
2022-09-20T13:58:58.973Z,21.60
2022-09-20T14:01:34.311Z,21.50
2022-09-20T14:04:19.213Z,21.10
2022-09-20T14:06:45.922Z,21.20
2022-09-20T14:09:27.079Z,21.30
2022-09-20T14:11:54.010Z,20.80
2022-09-20T14:14:22.341Z,20.30
2022-09-20T14:16:51.263Z,19.60
2022-09-20T14:19:20.816Z,19.30
2022-09-20T14:21:48.022Z,19.50
2022-09-20T14:24:14.680Z,19.50
2022-09-20T14:26:42.651Z,19.60
2022-09-20T14:29:34.244Z,19.20
2022-09-20T14:32:23.090Z,19.10
2022-09-20T14:34:55.902Z,19.10
2022-09-20T14:37:31.530Z,18.90
2022-09-20T14:40:01.146Z,18.70
2022-09-20T14:42:34.595Z,18.80
2022-09-20T14:45:03.439Z,19.30
2022-09-20T14:47:38.455Z,18.90
2022-09-20T14:50:22.890Z,18.70
2022-09-20T14:52:59.859Z,18.90
2022-09-20T14:55:32.677Z,19.10
2022-09-20T14:58:09.483Z,19.10
2022-09-20T15:01:02.030Z,19.00
2022-09-20T15:03:39.051Z,19.00
2022-09-20T15:06:07.092Z,18.90
2022-09-20T15:08:41.714Z,18.80
2022-09-20T15:11:16.653Z,19.30
2022-09-20T15:13:43.362Z,19.10
2022-09-20T15:16:14.979Z,19.20
2022-09-20T15:18:42.794Z,19.00
2022-09-20T15:21:11.302Z,19.00
2022-09-20T15:23:39.239Z,19.00
2022-09-20T15:26:06.164Z,18.90
2022-09-20T15:28:34.212Z,18.90
2022-09-20T15:31:00.727Z,18.60
2022-09-20T15:33:30.161Z,18.80
2022-09-20T15:35:56.790Z,19.10
2022-09-20T15:38:26.686Z,19.10
2022-09-20T15:40:53.893Z,18.60
2022-09-20T15:43:26.988Z,18.40
2022-09-20T15:45:56.031Z,18.10
2022-09-20T15:48:23.469Z,17.80
2022-09-20T15:51:05.646Z,17.70
2022-09-20T15:53:38.287Z,17.60
2022-09-20T15:56:14.414Z,17.60
2022-09-20T15:58:48.136Z,17.80
2022-09-20T16:01:16.674Z,17.90
2022-09-20T16:03:44.544Z,17.80
2022-09-20T16:06:11.571Z,17.90
2022-09-20T16:08:39.773Z,17.90
2022-09-20T16:11:07.933Z,17.90
2022-09-20T16:13:40.434Z,18.10
2022-09-20T16:16:09.101Z,18.10
2022-09-20T16:18:54.948Z,18.00
2022-09-20T16:21:21.876Z,17.90
2022-09-20T16:23:50.365Z,17.60
2022-09-20T16:26:17.944Z,17.40
2022-09-20T16:28:47.495Z,17.30
2022-09-20T16:31:32.774Z,17.40
2022-09-20T16:34:00.207Z,17.20
2022-09-20T16:36:27.752Z,17.10
2022-09-20T16:38:55.934Z,17.00
2022-09-20T16:41:27.279Z,17.40
2022-09-20T16:43:54.574Z,17.20
2022-09-20T16:46:25.395Z,17.30
2022-09-20T16:48:53.615Z,17.30
2022-09-20T16:51:25.917Z,17.30
2022-09-20T16:53:55.715Z,17.30
2022-09-20T16:56:23.778Z,17.30
2022-09-20T16:58:53.650Z,17.20
2022-09-20T17:01:20.525Z,17.30
2022-09-20T17:03:47.583Z,17.10
2022-09-20T17:06:16.147Z,17.20
2022-09-20T17:08:44.690Z,17.00
2022-09-20T17:11:21.596Z,17.00
2022-09-20T17:13:51.280Z,16.70
2022-09-20T17:16:23.033Z,16.90
2022-09-20T17:18:58.140Z,16.60
2022-09-20T17:21:25.918Z,16.80
2022-09-20T17:23:57.413Z,16.70
2022-09-20T17:26:28.593Z,16.60
2022-09-20T17:28:56.444Z,16.60
2022-09-20T17:31:28.614Z,16.60
2022-09-20T17:33:55.707Z,16.30
2022-09-20T17:36:22.169Z,16.40
2022-09-20T17:38:53.842Z,16.40
2022-09-20T17:41:20.909Z,16.30
2022-09-20T17:43:48.559Z,16.10
2022-09-20T17:46:25.806Z,15.80
2022-09-20T17:48:56.906Z,15.90
2022-09-20T17:51:25.763Z,16.10
2022-09-20T17:53:53.186Z,15.80
2022-09-20T17:56:29.372Z,15.80
2022-09-20T17:58:56.799Z,15.70
2022-09-20T18:01:23.870Z,15.80
2022-09-20T18:03:50.471Z,16.00
2022-09-20T18:06:25.175Z,15.30
2022-09-20T18:08:53.639Z,15.40
2022-09-20T18:11:22.595Z,15.20
2022-09-20T18:13:49.036Z,15.40
2022-09-20T18:16:17.291Z,15.20
2022-09-20T18:19:03.071Z,15.40
2022-09-20T18:21:36.969Z,15.40
2022-09-20T18:24:08.688Z,15.10
2022-09-20T18:26:35.922Z,15.10
2022-09-20T18:29:06.759Z,15.20
2022-09-20T18:31:43.137Z,15.20
2022-09-20T18:34:23.546Z,15.10
2022-09-20T18:36:52.554Z,15.10
2022-09-20T18:39:26.292Z,15.20
2022-09-20T18:41:53.411Z,15.10
2022-09-20T18:44:21.507Z,15.10
2022-09-20T18:46:48.675Z,15.20
2022-09-20T18:49:16.686Z,15.10
2022-09-20T18:51:44.161Z,15.00
2022-09-20T18:54:13.153Z,15.00
2022-09-20T18:56:44.283Z,14.80
2022-09-20T18:59:25.180Z,15.00
2022-09-20T19:01:54.988Z,15.20
2022-09-20T19:04:56.917Z,15.00
2022-09-20T19:07:29.514Z,14.90
2022-09-20T19:10:20.279Z,14.90
2022-09-20T19:13:05.024Z,14.90
2022-09-20T19:15:47.131Z,14.80
2022-09-20T19:18:40.528Z,14.70
2022-09-20T19:21:26.786Z,14.70
2022-09-20T19:24:14.553Z,14.50
2022-09-20T19:26:42.144Z,14.50
2022-09-20T19:29:26.799Z,14.50
2022-09-20T19:31:56.153Z,14.50
2022-09-20T19:34:25.720Z,14.70
2022-09-20T19:37:04.292Z,14.50
2022-09-20T19:39:40.131Z,14.30
2022-09-20T19:42:19.948Z,14.20
2022-09-20T19:44:58.343Z,14.30
2022-09-20T19:47:45.678Z,14.30
2022-09-20T19:50:27.910Z,14.30
2022-09-20T19:52:57.792Z,14.40
2022-09-20T19:55:24.788Z,14.10
2022-09-20T19:57:51.650Z,14.10
2022-09-20T20:00:20.581Z,14.00
2022-09-20T20:02:47.963Z,14.10
2022-09-20T20:05:20.056Z,14.20
2022-09-20T20:07:47.592Z,14.10
2022-09-20T20:10:26.066Z,14.00
2022-09-20T20:12:59.261Z,14.00
2022-09-20T20:15:50.977Z,14.00
2022-09-20T20:18:20.741Z,13.80
2022-09-20T20:20:49.249Z,13.90
2022-09-20T20:23:43.951Z,13.90
2022-09-20T20:26:24.246Z,13.70
2022-09-20T20:28:51.979Z,13.60
2022-09-20T20:31:21.884Z,13.60
2022-09-20T20:33:48.951Z,13.60
2022-09-20T20:36:16.557Z,13.50
2022-09-20T20:38:49.296Z,13.50
2022-09-20T20:41:18.386Z,13.60
2022-09-20T20:43:48.304Z,13.60
2022-09-20T20:46:17.625Z,13.60
2022-09-20T20:48:44.590Z,13.70
2022-09-20T20:51:18.993Z,13.60
2022-09-20T20:53:48.476Z,13.50
2022-09-20T20:56:15.793Z,13.40
2022-09-20T20:58:43.410Z,13.50
2022-09-20T21:01:15.595Z,13.30
2022-09-20T21:03:46.295Z,13.20
2022-09-20T21:06:13.173Z,13.40
2022-09-20T21:08:42.353Z,13.30
2022-09-20T21:11:12.917Z,13.30
2022-09-20T21:13:40.266Z,13.30
2022-09-20T21:16:15.538Z,13.20
2022-09-20T21:18:43.211Z,13.20
2022-09-20T21:21:26.656Z,13.10
2022-09-20T21:23:56.053Z,13.00
2022-09-20T21:26:23.003Z,13.10
2022-09-20T21:28:54.355Z,12.90
2022-09-20T21:31:22.374Z,12.60
2022-09-20T21:33:49.366Z,12.70
2022-09-20T21:36:17.710Z,12.80
2022-09-20T21:38:45.337Z,12.80
2022-09-20T21:41:17.770Z,12.80
2022-09-20T21:43:45.800Z,12.70
2022-09-20T21:46:20.252Z,12.80
2022-09-20T21:48:47.855Z,12.60
2022-09-20T21:51:16.111Z,12.80
2022-09-20T21:53:42.650Z,12.80
2022-09-20T21:56:11.662Z,12.50
2022-09-20T21:58:41.563Z,12.60
2022-09-20T22:01:11.701Z,12.50
2022-09-20T22:03:46.728Z,12.40
2022-09-20T22:06:18.059Z,12.40
2022-09-20T22:08:58.200Z,12.50
2022-09-20T22:11:27.090Z,12.60
2022-09-20T22:13:55.063Z,12.60
2022-09-20T22:16:22.941Z,12.70
2022-09-20T22:18:49.789Z,12.60
2022-09-20T22:21:23.476Z,12.60
2022-09-20T22:23:57.274Z,12.50
2022-09-20T22:26:26.202Z,12.40
2022-09-20T22:28:52.824Z,12.40
2022-09-20T22:31:21.897Z,12.30
2022-09-20T22:33:50.985Z,12.40
2022-09-20T22:36:23.009Z,12.50
2022-09-20T22:38:49.737Z,12.40
2022-09-20T22:41:17.998Z,12.20
2022-09-20T22:43:44.956Z,12.40
2022-09-20T22:46:16.455Z,12.30
2022-09-20T22:48:42.897Z,12.40
2022-09-20T22:51:15.000Z,12.30
2022-09-20T22:53:41.844Z,12.40
2022-09-20T22:56:17.092Z,12.40
2022-09-20T22:58:45.711Z,12.20
2022-09-20T23:01:14.043Z,12.20
2022-09-20T23:03:45.478Z,12.10
2022-09-20T23:06:20.931Z,12.00
2022-09-20T23:08:52.414Z,12.00
2022-09-20T23:11:19.427Z,12.10
2022-09-20T23:13:46.557Z,11.90
2022-09-20T23:16:24.830Z,12.00
2022-09-20T23:18:52.681Z,12.10
2022-09-20T23:21:19.283Z,12.20
2022-09-20T23:23:47.539Z,12.10
2022-09-20T23:26:17.121Z,11.60
2022-09-20T23:28:44.477Z,11.40
2022-09-20T23:31:16.145Z,11.70
2022-09-20T23:33:50.168Z,11.90
2022-09-20T23:36:17.333Z,11.90
2022-09-20T23:38:44.427Z,12.00
2022-09-20T23:41:12.959Z,11.90
2022-09-20T23:43:40.681Z,11.60
2022-09-20T23:46:08.124Z,11.70
2022-09-20T23:48:38.048Z,11.80
2022-09-20T23:51:05.934Z,11.90
2022-09-20T23:53:32.682Z,11.90
2022-09-20T23:55:59.126Z,11.90
2022-09-20T23:58:25.725Z,11.80
